Nearby METAR Reports

 

KMRB - Martinsburg, West Virginia, USA
Distance from station: NNW 9mi, 14km
Updated: 11/14/2019 7:53am
Clear
Clear
 Wind from SSE
Wind: SSE 3 mph , 6 km/h
Temperature: 25°F , -4°C
Dew Point: 16°F , -9°C
Humidity: 69%
Barometer: 30.36 inHg , 1028.1 hPa
Clouds: Clear
Visibility: 10 miles , 16 km
2019/11/14 12:53 KMRB 141253Z 15003KT 10SM CLR M04/M09 A3036 RMK AO2 SLP287 T10391094
KOKV - Winchester Rgnl, Virginia, USA
Distance from station: SW 17mi, 28km
Updated: 11/14/2019 8:35am
Clear
Clear
 Wind from S
Wind: S 3 mph , 6 km/h
Temperature: 28°F , -2°C
Dew Point: 16°F , -9°C
Humidity: 59%
Barometer: 30.34 inHg , 1027.4 hPa
Clouds: Clear
Visibility: 10 miles , 16 km
2019/11/14 13:35 KOKV 141335Z AUTO 18003KT 10SM CLR M02/M09 A3034 RMK AO2
 
KJYO - Leesburg/Godfrey, Virginia, USA
Distance from station: SE 23mi, 38km
Updated: 11/14/2019 8:35am
Clear
Clear
 Wind from S
Wind: S 7 mph , 11 km/h
Temperature: 28°F , -2°C
Wind Chill: 21°F , -6°C
Dew Point: 21°F , -6°C
Humidity: 74%
Barometer: 30.42 inHg , 1030.1 hPa
Clouds: Clear
Visibility: 10 miles , 16 km
2019/11/14 13:35 KJYO 141335Z AUTO 19006KT 10SM CLR M02/M06 A3042 RMK AO2
KFDK - Frederick, Maryland, USA
Distance from station: ENE 30mi, 48km
Updated: 11/14/2019 7:47am
Clear
Clear
 Wind from calm
Wind: Calm
Temperature: 27°F , -3°C
Dew Point: 19°F , -7°C
Humidity: 74%
Barometer: 30.41 inHg , 1029.8 hPa
Clouds: Clear
Visibility: 10 miles , 16 km
2019/11/14 12:47 KFDK 141247Z 00000KT 10SM SKC M03/M07 A3041
 
KHGR - Hagerstown, Maryland, USA
Distance from station: NNE 30mi, 48km
Updated: 11/14/2019 7:53am
Clear
Clear
 Wind from SSE
Wind: SSE 8 mph , 13 km/h
Temperature: 28°F , -2°C
Wind Chill: 20°F , -7°C
Dew Point: 12°F , -11°C
Humidity: 51%
Barometer: 30.35 inHg , 1027.8 hPa
Clouds: Clear
Visibility: 10 miles , 16 km
2019/11/14 12:53 KHGR 141253Z 16007KT 10SM CLR M02/M11 A3035 RMK AO2 SLP296 T10221106
KIAD - Wash Dc/Dulles, Virginia, USA
Distance from station: SE 34mi, 55km
Updated: 11/14/2019 7:52am
Mostly cloudy
Mostly cloudy
 Wind from S
Wind: S 6 mph , 9 km/h
Temperature: 27°F , -3°C
Wind Chill: 20°F , -7°C
Dew Point: 18°F , -8°C
Humidity: 69%
Barometer: 30.41 inHg , 1029.8 hPa
Clouds: Mostly cloudy
Visibility: 10 miles , 16 km
Cloud details: Partly cloudy 18000 ft
Mostly cloudy 25000 ft
2019/11/14 12:52 KIAD 141252Z 17005KT 10SM SCT180 BKN250 M03/M08 A3041 RMK AO2 SLP299 T10281083
 
KRSP - Nsf Thurmont, Maryland, USA
Distance from station: NE 34mi, 55km
Updated: 05/18/2019 1:54pm
NOT Current

 
2019/05/18 17:54 KRSP 181754Z AUTO VRB04KTLS21/16 A3004 RMK AO2 SLP168 T02110161 10228 20172 $
KGAI - Gaithersburg, Maryland, USA
Distance from station: E 40mi, 64km
Updated: 11/14/2019 7:56am
Clear
Clear
 Wind from SSE
Wind: SSE 3 mph , 6 km/h
Temperature: 28°F , -2°C
Dew Point: 18°F , -8°C
Humidity: 64%
Barometer: 30.40 inHg , 1029.5 hPa
Clouds: Clear
Visibility: 10 miles , 16 km
2019/11/14 12:56 KGAI 141256Z AUTO 16003KT 10SM CLR M02/M08 A3040 RMK AO2 SLP317 T10221078 FZRANO
 
KRYT - Fountain Dale, Pennsylvania, USA
Distance from station: NE 40mi, 64km
Updated: 11/13/2017 7:53am
NOT Current
Mist, Overcast
Mist, Overcast
 Wind from calm
Wind: Calm
Temperature: 37°F , 3°C
Dew Point: 34°F , 1°C
Humidity: 87%
Barometer: 30.31 inHg , 1026.4 hPa
Summary: Mist
Clouds: Overcast
Visibility: 5 miles , 8 km
Cloud details: Overcast 700 ft
2017/11/13 12:53 KRYT 131253Z AUTO 00000KT 5SM BR OVC007 03/01 A3031 RMK AO2 SLP275 T00280011 TSNO $
KHEF - Manassas Muni, Virginia, USA
Distance from station: SSE 44mi, 72km
Updated: 11/14/2019 7:56am
Clear
Clear
 Wind from SSE
Wind: SSE 3 mph , 6 km/h
Temperature: 21°F , -6°C
Dew Point: 19°F , -7°C
Humidity: 93%
Barometer: 30.42 inHg , 1030.1 hPa
Clouds: Clear
Visibility: 10 miles , 16 km
2019/11/14 12:56 KHEF 141256Z 15003KT 10SM CLR M06/M07 A3042 RMK AO2 SLP311 T10561072 FZRANO
 
KHWY - Warrenton, Virginia, USA
Distance from station: SSE 50mi, 80km
Updated: 11/14/2019 8:35am
Clear
Clear
 Wind from S
Wind: S 5 mph , 7 km/h
Temperature: 30°F , -1°C
Wind Chill: 25°F , -4°C
Dew Point: 16°F , -9°C
Humidity: 55%
Barometer: 30.40 inHg , 1029.5 hPa
Clouds: Clear
Visibility: 10 miles , 16 km
2019/11/14 13:35 KHWY 141335Z AUTO 18004KT 10SM CLR M01/M09 A3040 RMK AO2 T10151089